http://www.ohio.gov http://www.dot.state.oh.us
W W W . B U C K E Y E T R A F F I C . O R G

1-SR49 @ SR249 (200000) Status Air Temp Sfc Temp Sub Temp Dew Temp Wind Precip Traffic Updated
Sensor [A]: Atmospheric - 63.0 - - 29.3 11.8 / NW - - 4/18/2014 7:11:49 PM
2-SR-309 @ SR-235 (200001) Status Air Temp Sfc Temp Sub Temp Dew Temp Wind Precip Traffic Updated
Sensor [A]: Atmospheric - 65.3 - - 37.6 8.1 / N - - 4/18/2014 7:11:04 PM
Sensor [0]: SR309 EB Dry - 76.1 - - - - - 4/18/2014 7:11:04 PM
3-US24 @ Indiana Line (200002) Status Air Temp Sfc Temp Sub Temp Dew Temp Wind Precip Traffic Updated
Sensor [A]: Atmospheric - 64.4 - - 28.9 9.9 / N - - 4/18/2014 7:11:51 PM
4-US224 @ SR190 (200003) Status Air Temp Sfc Temp Sub Temp Dew Temp Wind Precip Traffic Updated
Sensor [A]: Atmospheric - 65.7 - - 38.1 1.2 / W - - 4/18/2014 7:09:24 PM
5- US30 @ SR49 North (200004) Status Air Temp Sfc Temp Sub Temp Dew Temp Wind Precip Traffic Updated
Sensor [A]: Atmospheric - 64.6 - - 36.9 9.9 / N - - 4/18/2014 7:12:23 PM
6-US23 @ SLM 11.2 (200005) Status Air Temp Sfc Temp Sub Temp Dew Temp Wind Precip Traffic Updated
Sensor [A]: Atmospheric - 64.8 - - 39.4 5.6 / W - - 4/18/2014 7:12:25 PM
7-US30 Bypass @ SR4 (200006) Status Air Temp Sfc Temp Sub Temp Dew Temp Wind Precip Traffic Updated
Sensor [A]: Atmospheric - 64.8 - - 41.0 0.6 / E - - 4/18/2014 7:04:00 PM
Sensor [0]: East Bound Driving Lane Dry - 72.3 - - - - 17 / 62.1 4/18/2014 7:04:00 PM
Sensor [1]: East Bound Passing Lane Error - - - - - - 254 / 158.4 4/18/2014 7:04:00 PM
Sensor [2]: West Bound Passing Lane Bridge Dry - 73.4 - - - - 6 / 65.2 4/18/2014 7:04:00 PM
Sensor [3]: West Bound Driving Lane Dry - 70.7 - - - - 23 / 57.8 4/18/2014 7:04:00 PM
8-Huron County Garage (200007) Status Air Temp Sfc Temp Sub Temp Dew Temp Wind Precip Traffic Updated
Sensor [A]: Atmospheric - 60.1 - - 45.3 4.3 / N - - 4/18/2014 7:11:04 PM
Sensor [0]: US250 NB Lane Dry - 67.1 - - - - 2 / 57.2 4/18/2014 7:11:04 PM
Sensor [1]: US250 SB Lane Dry - 68.9 - - - - 23 / 51.0 4/18/2014 7:11:04 PM
9-I77 MM 109 @ Belden Village (200008) Status Air Temp Sfc Temp Sub Temp Dew Temp Wind Precip Traffic Updated
Sensor [A]: Atmospheric - 64.6 - - 35.2 5.0 / N - - 4/18/2014 7:11:56 PM
Sensor [0]: Ramp Bridge over I-77 Dry - 72.5 - - - - 32 / 42.9 4/18/2014 7:11:56 PM
10-SR5@SR45 (200009) Status Air Temp Sfc Temp Sub Temp Dew Temp Wind Precip Traffic Updated
Sensor [A]: Atmospheric - 61.9 - - 35.8 3.1 / NW - - 4/18/2014 7:10:28 PM
Sensor [0]: EB Driving Dry - 70.7 65.3 - - - - 4/18/2014 7:10:28 PM
Sensor [1]: SR5 EB Passing Dry - 71.6 - - - - - 4/18/2014 7:10:28 PM
Sensor [2]: SR5 WB Passing Bridgedeck Dry - 69.8 - - - - - 4/18/2014 7:10:28 PM
Sensor [3]: SR5 EB passing Bridgedeck Dry - 68.9 - - - - - 4/18/2014 7:10:28 PM
11-SR36@SR206 (200010) Status Air Temp Sfc Temp Sub Temp Dew Temp Wind Precip Traffic Updated
Sensor [A]: Atmospheric - 63.5 - - 37.9 5.6 / NW - - 4/18/2014 6:11:13 PM
Sensor [0]: US36 EB Dry - 77.9 - - - - - 4/18/2014 6:11:13 PM
Sensor [1]: US36 WB Dry - 78.8 - - - - - 4/18/2014 6:11:13 PM
12-US-33 @ SR793 (200011) Status Air Temp Sfc Temp Sub Temp Dew Temp Wind Precip Traffic Updated
Sensor [A]: Atmospheric - 66.7 - - 32.0 5.6 / E - - 4/18/2014 7:03:00 PM
Sensor [0]: US33 EB Driving Error - - 70.7 - - - 29 / 21.1 4/18/2014 7:03:00 PM
Sensor [1]: US33 EB Passing Error - - - - - - 6 / 9.9 4/18/2014 7:03:00 PM
Sensor [2]: US33 WB Passing Error - - - - - - 8 / 67.1 4/18/2014 7:03:00 PM
Sensor [3]: US33 WB Driving Error - - - - - - 28 / 65.9 4/18/2014 7:03:00 PM
13-Knox County Garage (200012) Status Air Temp Sfc Temp Sub Temp Dew Temp Wind Precip Traffic Updated
Sensor [A]: Atmospheric - 66.0 - - 37.8 - - - 4/18/2014 7:11:58 PM
Sensor [0]: SR-3 NB Driving Dry - 75.2 - - - - 25 / 37.9 4/18/2014 7:11:58 PM
Sensor [1]: SR-3 SB Driving Dry - 76.6 - - - - 19 / 39.8 4/18/2014 7:11:58 PM
14-SR13@CR26N/Sheridan Rd (200013) Status Air Temp Sfc Temp Sub Temp Dew Temp Wind Precip Traffic Updated
Sensor [A]: Atmospheric - 65.7 - - 36.1 2.5 / NW - - 4/18/2014 7:12:00 PM
Sensor [0]: SR13 Eastbound Dry - 75.2 - - - - - 4/18/2014 7:12:00 PM
15-US35 @ SR62 (200014) Status Air Temp Sfc Temp Sub Temp Dew Temp Wind Precip Traffic Updated
Sensor [A]: Atmospheric - 65.8 - - 17.4 5.6 / N - - 4/18/2014 7:12:36 PM
Sensor [0]: US35 Eastbound Driving Dry - 74.3 59.9 - - - - 4/18/2014 7:12:36 PM
Sensor [1]: US35 Westbound Driving Dry - 74.3 - - - - - 4/18/2014 7:12:36 PM
Sensor [2]: SR62 Northbound Bridgedeck Dry - 75.2 - - - - - 4/18/2014 7:12:36 PM
16-SR-752 @ 1.3 Pickaway County (200015) Status Air Temp Sfc Temp Sub Temp Dew Temp Wind Precip Traffic Updated
Sensor [A]: Atmospheric - 66.9 - - 40.3 2.5 / NW - - 4/18/2014 7:10:37 PM
17-US23 @ E. Fairground Road Overpass (200016) Status Air Temp Sfc Temp Sub Temp Dew Temp Wind Precip Traffic Updated
Sensor [A]: Atmospheric - 64.2 - - 39.6 4.3 / N - - 4/18/2014 7:09:10 PM
Sensor [0]: US23 NorthBound Passing Approach Dry - 71.2 - - - - - 4/18/2014 7:09:10 PM
Sensor [1]: US23 SouthBound Passing Bridgedeck Dry - 72.1 58.6 - - - 34 / 57.2 4/18/2014 7:09:10 PM
18-US33 @ SR739 (200017) Status Air Temp Sfc Temp Sub Temp Dew Temp Wind Precip Traffic Updated
Sensor [A]: Atmospheric - 65.3 - - 37.2 9.3 / N - - 4/18/2014 7:10:41 PM
Sensor [0]: US33 Eastbound Driving Shade Dry - 68.9 50.9 - - - - 4/18/2014 7:10:41 PM
Sensor [1]: US33 Eastbound Passing Dry - 76.1 - - - - - 4/18/2014 7:10:41 PM
Sensor [2]: US33 Westbound Passing Dry - 75.2 - - - - - 4/18/2014 7:10:41 PM
Sensor [4]: SR739 Northbound Bridgedeck Dry - 78.8 - - - - - 4/18/2014 7:10:41 PM
19-US68 @ SLM 1.4 (200018) Status Air Temp Sfc Temp Sub Temp Dew Temp Wind Precip Traffic Updated
Sensor [A]: Atmospheric - 67.5 - - 37.4 3.7 / W - - 4/18/2014 7:03:00 PM
Sensor [0]: SR68 NB Driving Deck Error - - 46.6 - - - 12 / 139.2 4/18/2014 7:03:00 PM
Sensor [1]: SR68 NB Passing Deck Error - - - - - - 4 / 158.4 4/18/2014 7:03:00 PM
Sensor [2]: SR68 SB Passing Dry - 76.5 - - - - 1 / 65.2 4/18/2014 7:03:00 PM
Sensor [3]: SR68 SB Driving Error - - - - - - 4 / 51.0 4/18/2014 7:03:00 PM
20-SR502 @ SLM 0.5 (200019) Status Air Temp Sfc Temp Sub Temp Dew Temp Wind Precip Traffic Updated
Sensor [A]: Atmospheric - 64.0 - - 41.5 2.5 / NE - - 4/18/2014 7:12:18 PM
Sensor [0]: SR502 EB Lane Dry - 77.9 75.2 - - - 4 / 51.0 4/18/2014 7:12:18 PM
21-US33 @ SR540 (200020) Status Air Temp Sfc Temp Sub Temp Dew Temp Wind Precip Traffic Updated
Sensor [A]: Atmospheric - 62.8 - - 36.1 2.5 / W - - 4/18/2014 7:11:01 PM
22-SR29 @ SLM 0.8 (200021) Status Air Temp Sfc Temp Sub Temp Dew Temp Wind Precip Traffic Updated
Sensor [A]: Atmospheric - 67.8 - - 37.4 4.3 / SW - - 4/18/2014 7:03:00 PM
Sensor [0]: SR29 EB Lane Dry - 82.4 59.4 - - - 3 / 62.1 4/18/2014 7:03:00 PM
Sensor [1]: SR29 WB Lane Dry - 82.4 - - - - 5 / 55.3 4/18/2014 7:03:00 PM
23-SR41 @ SR136 Adams County (200022) Status Air Temp Sfc Temp Sub Temp Dew Temp Wind Precip Traffic Updated
Sensor [A]: Atmospheric - 65.8 - - 34.0 3.7 / N - - 4/18/2014 7:12:47 PM
Sensor [0]: SR136 NB Lane Dry - 76.1 68.9 - - - - 4/18/2014 7:12:47 PM
Sensor [1]: SR136 SB Lane Dry - 76.1 - - - - - 4/18/2014 7:12:47 PM
24-US68@SR125 (200023) Status Air Temp Sfc Temp Sub Temp Dew Temp Wind Precip Traffic Updated
Sensor [A]: Atmospheric - 65.8 - - 38.1 1.2 / S - - 4/18/2014 7:10:36 PM
Sensor [0]: NB US68 Dry - 73.4 - - - - - 4/18/2014 7:10:36 PM
Sensor [1]: SB US68 Dry - 72.5 - - - - - 4/18/2014 7:10:36 PM
25-Highland County Garage (200024) Status Air Temp Sfc Temp Sub Temp Dew Temp Wind Precip Traffic Updated
Sensor [A]: Atmospheric - 65.1 - - 36.1 1.9 / N - - 4/18/2014 7:12:31 PM
26-SR32 @ US35 (200025) Status Air Temp Sfc Temp Sub Temp Dew Temp Wind Precip Traffic Updated
Sensor [A]: Atmospheric - 69.3 - - 34.2 8.7 / NW - - 4/18/2014 7:12:32 PM
Sensor [0]: US 35 WB Driving Lane Dry - 80.6 - - - - 21 / 57.8 4/18/2014 7:12:32 PM
Sensor [1]: US 35 EB Driving Lane Dry - 81.5 - - - - 19 / 62.1 4/18/2014 7:12:32 PM
Sensor [2]: SR32 Eastbound Driving Lane Bridgedeck Dry - 81.5 - - - - 26 / 57.8 4/18/2014 7:12:32 PM
Sensor [3]: SR32 Westbound Passing Lane Approach Dry - 79.7 - - - - 0 / 5.0 4/18/2014 7:12:32 PM
27-US52 @ Ice Creek (200026) Status Air Temp Sfc Temp Sub Temp Dew Temp Wind Precip Traffic Updated
Sensor [A]: Atmospheric - 71.4 - - 33.3 - - - 4/18/2014 7:11:53 PM
Sensor [0]: SR52 East Bound Driving Lane Dry - 77.0 57.0 - - - 34 / 51.0 4/18/2014 7:11:53 PM
Sensor [1]: SR52 East Bound Passing Lane Dry - 78.6 - - - - 14 / 60.3 4/18/2014 7:11:53 PM
Sensor [2]: SR52 West Bound Passing Lane Dry - 78.8 - - - - 9 / 46.0 4/18/2014 7:11:53 PM
Sensor [3]: SR52 West Bound Driving Lane Dry - 77.9 - - - - 1 / 5.0 4/18/2014 7:11:53 PM
28-US23 @ SLM 6.5 (200027) Status Air Temp Sfc Temp Sub Temp Dew Temp Wind Precip Traffic Updated
Sensor [A]: Atmospheric - 69.1 - - 32.0 1.2 / N - - 4/18/2014 7:04:00 PM
Sensor [0]: US23 North Bound Driving Lane Error - - 66.4 - - - 32 / 44.1 4/18/2014 7:04:00 PM
Sensor [1]: US23 North Bound Passing Lane Dry - 82.4 - - - - 6 / 55.3 4/18/2014 7:04:00 PM
Sensor [2]: US23 South Bound Passing Lane Error - - - - - - 2 / 60.9 4/18/2014 7:04:00 PM
Sensor [3]: US23 South Bound Driving Lane Error - - - - - - 0 / 9.9 4/18/2014 7:04:00 PM
29-US35 @ MM 14.76 (200028) Status Air Temp Sfc Temp Sub Temp Dew Temp Wind Precip Traffic Updated
Sensor [A]: Atmospheric - 54.7 - - 1.4 - - - 4/18/2014 7:07:00 PM
Sensor [0]: SR35 EB Driving Dry - 75.9 - - - - 31 / 62.8 4/18/2014 7:07:00 PM
Sensor [1]: SR35 WB Passing Error - - - - - - 0 / 47.2 4/18/2014 7:07:00 PM
Sensor [2]: SR35 WB Driving Dry - 77.0 - - - - 15 / 62.8 4/18/2014 7:07:00 PM
Sensor [3]: Bridge Deck Simulator Error - - 50.4 - - - 0 / 55.9 4/18/2014 7:07:00 PM
30-US23 @ SLM 9.2 (200029) Status Air Temp Sfc Temp Sub Temp Dew Temp Wind Precip Traffic Updated
Sensor [A]: Atmospheric - 69.3 - - 32.9 6.8 / NW - - 4/18/2014 7:11:23 PM
Sensor [1]: US23 NB Passing Dry - 83.3 - - - - 11 / 34.2 4/18/2014 7:11:23 PM
Sensor [2]: US23 SB Passing Dry - 82.4 - - - - 9 / 59.0 4/18/2014 7:11:23 PM
Sensor [3]: US23 SB Driving Dry - 82.4 - - - - 26 / 54.1 4/18/2014 7:11:23 PM
31-USR 50 MM 17.68 (200030) Status Air Temp Sfc Temp Sub Temp Dew Temp Wind Precip Traffic Updated
Sensor [A]: Atmospheric - 69.8 - - 32.9 4.3 / E - - 4/18/2014 7:10:31 PM
Sensor [0]: US50 Eastbound Driving Dry - 77.9 - - - - - 4/18/2014 7:10:31 PM
Sensor [2]: US50 Westbound Passing Dry - 79.7 - - - - - 4/18/2014 7:10:31 PM
Sensor [3]: US50 Westbound Driving Dry - 78.8 - - - - - 4/18/2014 7:10:31 PM
32-USR 35 @ SR 160 (200031) Status Air Temp Sfc Temp Sub Temp Dew Temp Wind Precip Traffic Updated
Sensor [A]: Atmospheric - 69.3 - - 35.8 1.2 / NW - - 4/18/2014 7:10:34 PM
Sensor [2]: US35 Westbound Passing Bridgedeck Dry - 77.9 - - - - - 4/18/2014 7:10:34 PM
Sensor [3]: US35 Westbound Driving Departure Dry - 77.9 - - - - - 4/18/2014 7:10:34 PM
33-US33@mm9.2 (200032) Status Air Temp Sfc Temp Sub Temp Dew Temp Wind Precip Traffic Updated
Sensor [A]: Atmospheric - 66.7 - - 33.3 1.9 / NW - - 4/18/2014 7:12:02 PM
Sensor [1]: US33 Eastbound Passing Bridgedeck Dry - 72.5 - - - - - 4/18/2014 7:12:02 PM
Sensor [3]: US33 Westbound Driving Bridgedeck Dry - 72.5 - - - - - 4/18/2014 7:12:02 PM
34-US33 @ OH7 (200033) Status Air Temp Sfc Temp Sub Temp Dew Temp Wind Precip Traffic Updated
Sensor [A]: Atmospheric - 68.9 - - 33.3 2.5 / W - - 4/18/2014 7:12:41 PM
Sensor [0]: SR33 EB Driving Departure Dry - 78.8 80.6 - - - - 4/18/2014 7:12:41 PM
Sensor [1]: SR33 EB Passing Bridgedeck Dry - 77.0 - - - - - 4/18/2014 7:12:41 PM
Sensor [3]: SR33 WB Driving Approach Dry - 77.0 - - - - - 4/18/2014 7:12:41 PM
35-SR7 @ SLM12.7 (200034) Status Air Temp Sfc Temp Sub Temp Dew Temp Wind Precip Traffic Updated
Sensor [A]: Atmospheric - 66.7 - - 35.2 1.9 / SW - - 4/18/2014 7:12:39 PM
Sensor [1]: SR7 NB Passing Lane Dry - 73.4 - - - - - 4/18/2014 7:12:39 PM
Sensor [2]: SR7 SB Passing Lane Dry - 72.5 - - - - - 4/18/2014 7:12:39 PM
36-SR60 @ Monestary Rd (200035) Status Air Temp Sfc Temp Sub Temp Dew Temp Wind Precip Traffic Updated
Sensor [A]: Atmospheric - 65.7 - - 33.3 6.2 / NW - - 4/18/2014 7:12:38 PM
Sensor [0]: SR60 EB Lane Dry - 76.1 63.5 - - - - 4/18/2014 7:12:38 PM
Sensor [1]: SR60 WB Lane Dry - 75.2 - - - - - 4/18/2014 7:12:38 PM
37-SR32@SR160 (200036) Status Air Temp Sfc Temp Sub Temp Dew Temp Wind Precip Traffic Updated
Sensor [A]: Atmospheric - 70.0 - - 33.1 1.9 / N - - 4/18/2014 7:12:04 PM
Sensor [2]: SR32 Westbound Passing Bridgedeck Dry - 82.6 - - - - - 4/18/2014 7:12:04 PM
Sensor [3]: SR32 Westbound Driving Bridgedeck Dry - 83.3 - - - - - 4/18/2014 7:12:04 PM
38-SR43@SR9 (200037) Status Air Temp Sfc Temp Sub Temp Dew Temp Wind Precip Traffic Updated
Sensor [A]: Atmospheric - 63.5 - - 33.4 5.6 / NW - - 4/18/2014 7:10:33 PM
Sensor [0]: SR43 NB Dry - 73.4 - - - - - 4/18/2014 7:10:33 PM
Sensor [2]: SR9 SB Dry - 74.3 - - - - - 4/18/2014 7:10:33 PM
39-SR11@SR267 (200038) Status Air Temp Sfc Temp Sub Temp Dew Temp Wind Precip Traffic Updated
Sensor [A]: Atmospheric - 63.3 - - 32.0 5.6 / N - - 4/18/2014 7:10:29 PM
Sensor [2]: SR11 SB Passing Dry - 72.5 - - - - - 4/18/2014 7:10:29 PM
40-Clinton County Garage (200039) Status Air Temp Sfc Temp Sub Temp Dew Temp Wind Precip Traffic Updated
Sensor [A]: Atmospheric - 66.0 - - 36.3 3.7 / SW - - 4/18/2014 7:12:37 PM
41- SR62@SR206 (200042) Status Air Temp Sfc Temp Sub Temp Dew Temp Wind Precip Traffic Updated
Sensor [A]: Atmospheric - 68.0 - - 37.0 3.1 / NW - - 4/18/2014 7:11:02 PM
Sensor [0]: SR62 EB Dry - 78.8 - - - - 3 / 42.9 4/18/2014 7:11:02 PM
Sensor [1]: SR62 WB Dry - 77.9 - - - - 1 / 32.3 4/18/2014 7:11:02 PM
42- SR7@ SLM14.65 (200041) Status Air Temp Sfc Temp Sub Temp Dew Temp Wind Precip Traffic Updated
Sensor [A]: Atmospheric - 66.7 - - 32.5 1.2 / S - - 4/18/2014 7:10:34 PM
Sensor [2]: SB SR7 Passing Dry - 72.5 - - - - - 4/18/2014 7:10:34 PM
51-I-70 @ 1.0 MM (200050) Status Air Temp Sfc Temp Sub Temp Dew Temp Wind Precip Traffic Updated
Sensor [A]: Atmospheric - 66.4 - - 38.8 6.2 / NW - - 4/18/2014 7:10:39 PM
Sensor [0]: IR70 East Bound Passing Lane Dry - 75.2 47.1 - - - 56 / 62.1 4/18/2014 7:10:39 PM
Sensor [1]: IR70 West Bound Passing Lane Dry - 74.3 - - - - 60 / 60.3 4/18/2014 7:10:39 PM
Sensor [2]: IR70 West Bound Driving Lane Dry - 74.3 - - - - 53 / 62.1 4/18/2014 7:10:39 PM
52-18 MM MOT/PRE (200051) Status Air Temp Sfc Temp Sub Temp Dew Temp Wind Precip Traffic Updated
Sensor [A]: Atmospheric - 67.6 - - 28.8 5.0 / NW - - 4/18/2014 7:10:41 PM
Sensor [2]: IR70 West Bound Passing Lane Dry - 76.1 46.2 - - - 26 / 62.8 4/18/2014 7:10:41 PM
53-CLA-70 @ I675 (200052) Status Air Temp Sfc Temp Sub Temp Dew Temp Wind Precip Traffic Updated
Sensor [A]: Atmospheric - 67.8 - - 39.0 3.1 / NW - - 4/18/2014 7:11:05 PM
Sensor [0]: IR70 East Bound Driving Lane Dry - 74.8 52.5 - - - 23 / 60.9 4/18/2014 7:11:05 PM
Sensor [1]: IR675 NB Driving Bridge Deck Dry - 76.6 - - - - 29 / 55.9 4/18/2014 7:11:05 PM
54-IR70 MM 62 (200053) Status Air Temp Sfc Temp Sub Temp Dew Temp Wind Precip Traffic Updated
Sensor [A]: Atmospheric - 65.7 - - 37.0 3.1 / N - - 4/18/2014 7:12:20 PM
Sensor [1]: I70 WB Passing Dry - 72.5 - - - - 25 / 60.9 4/18/2014 7:12:20 PM
55-IR70 MM 142 (200054) Status Air Temp Sfc Temp Sub Temp Dew Temp Wind Precip Traffic Updated
Sensor [A]: Atmospheric - 66.7 - - 37.0 1.9 / NW - - 4/18/2014 7:10:43 PM
Sensor [2]: IR70 West Bound Passing Lane Dry - 73.4 - - - - 25 / 44.1 4/18/2014 7:10:43 PM
56-IR70 MM 169 (200055) Status Air Temp Sfc Temp Sub Temp Dew Temp Wind Precip Traffic Updated
Sensor [A]: Atmospheric - 66.6 - - 36.0 0.6 / SW - - 4/18/2014 7:10:45 PM
57-IR70 MM 198 (200056) Status Air Temp Sfc Temp Sub Temp Dew Temp Wind Precip Traffic Updated
Sensor [A]: Atmospheric - 65.7 - - 33.4 3.1 / S - - 4/18/2014 7:10:47 PM
Sensor [0]: IR70 East Bound Driving Lane Dry - 72.5 59.9 - - - 40 / 57.2 4/18/2014 7:10:47 PM
Sensor [1]: IR70 East Bound Passing Lane Dry - 73.4 - - - - 1 / 26.7 4/18/2014 7:10:47 PM
Sensor [2]: IR70 West Bound Passing Lane Dry - 72.5 - - - - 20 / 57.8 4/18/2014 7:10:47 PM
58-IR470 MM 6 (200057) Status Air Temp Sfc Temp Sub Temp Dew Temp Wind Precip Traffic Updated
Sensor [A]: Atmospheric - 67.1 - - 36.7 1.2 / SW - - 4/18/2014 7:10:59 PM
59-Warren Co. Garage ***Under Construction*** (200058) Status Air Temp Sfc Temp Sub Temp Dew Temp Wind Precip Traffic Updated
Sensor [A]: Atmospheric - 38.3 - - 26.6 8.1 / W - - 3/20/2014 10:56:00 AM
60-IR71 MM 62 (200059) Status Air Temp Sfc Temp Sub Temp Dew Temp Wind Precip Traffic Updated
Sensor [A]: Atmospheric - 66.9 - - 35.4 1.9 / NW - - 4/18/2014 7:11:39 PM
Sensor [0]: IR71 NB Center Dry - 73.4 52.5 - - - 52 / 62.8 4/18/2014 7:11:39 PM
Sensor [1]: IR71 NB Passing Bridge Deck Dry - 73.4 - - - - 10 / 65.2 4/18/2014 7:11:39 PM
Sensor [2]: IR71 SB Passing Bridge Deck Dry - 74.3 - - - - 19 / 65.2 4/18/2014 7:11:39 PM
Sensor [3]: IR71 SB Center Dry - 73.4 - - - - 94 / 44.7 4/18/2014 7:11:39 PM
61-IR71 MM 79 (200060) Status Air Temp Sfc Temp Sub Temp Dew Temp Wind Precip Traffic Updated
Sensor [A]: Atmospheric - 66.9 - - 35.8 1.2 / N - - 4/18/2014 7:11:42 PM
Sensor [1]: IR71 North Bound Passing Lane Dry - 74.3 - - - - 57 / 62.8 4/18/2014 7:11:42 PM
Sensor [3]: IR71 South Bound Driving Lane Dry - 74.3 - - - - 58 / 62.1 4/18/2014 7:11:42 PM
62- Cemetary Rd. Over I-270 (200061) Status Air Temp Sfc Temp Sub Temp Dew Temp Wind Precip Traffic Updated
Sensor [A]: Atmospheric - 66.7 - - 37.4 4.3 / N - - 4/18/2014 7:10:57 PM
Sensor [0]: I270NB Exit to Cemetery Rd WB Dry - 77.0 75.9 - - - 25 / 34.2 4/18/2014 7:10:57 PM
Sensor [1]: I270 NB Driving Dry - 75.2 - - - - 35 / 60.3 4/18/2014 7:10:57 PM
Sensor [2]: Cemetery Rd Ramp to I270 SB Dry - 78.8 - - - - 0 / 59.0 4/18/2014 7:10:57 PM
63-I71 MM 144 ***Under Construction*** (200062) Status Air Temp Sfc Temp Sub Temp Dew Temp Wind Precip Traffic Updated
Sensor [A]: Atmospheric - 60.3 - - 47.3 6.2 / E - - 4/9/2013 9:12:09 AM
Sensor [0]: I71 NB Driving (Deck) Dry - 68.9 46.9 - - - 46 / 55.9 4/9/2013 9:12:09 AM
Sensor [1]: I71 NB Passing (Approach) Dry - 60.1 - - - - 0 / 5.0 4/9/2013 9:12:09 AM
Sensor [3]: I71 SB Driving (Departure) Dry - 63.3 - - - - 0 / 65.2 4/9/2013 9:12:09 AM
64-I71 MM 158 (200063) Status Air Temp Sfc Temp Sub Temp Dew Temp Wind Precip Traffic Updated
Sensor [A]: Atmospheric - 64.0 - - 38.1 - - - 4/18/2014 7:12:05 PM
Sensor [1]: I71 NB Center Lane Dry - 72.1 - - - - 101 / 60.3 4/18/2014 7:12:05 PM
65-IR71 MM 174 (200064) Status Air Temp Sfc Temp Sub Temp Dew Temp Wind Precip Traffic Updated
Sensor [A]: Atmospheric - 64.2 - - 36.9 - - - 4/18/2014 7:12:11 PM
Sensor [0]: IR71 North Bound Driving Lane Dry - 69.8 - - - - 45 / 60.9 4/18/2014 7:12:11 PM
Sensor [1]: IR71 North Bound Center Lane Dry - 70.9 - - - - 85 / 60.3 4/18/2014 7:12:11 PM
Sensor [2]: IR71 South Bound Center Lane Dry - 70.7 - - - - 62 / 62.1 4/18/2014 7:12:11 PM
66-IR71 MM 195.55 (200065) Status Air Temp Sfc Temp Sub Temp Dew Temp Wind Precip Traffic Updated
Sensor [A]: Atmospheric - 63.0 - - 38.8 1.2 / W - - 4/18/2014 7:10:58 PM
Sensor [0]: IR71 North Bound Driving Lane Dry - 68.0 31.8 - - - 4 / 55.3 4/18/2014 7:10:58 PM
Sensor [1]: IR71 South Bound Passing Lane Dry - 68.0 - - - - 0 / 54.1 4/18/2014 7:10:58 PM
67-IR71 MM 209 (200066) Status Air Temp Sfc Temp Sub Temp Dew Temp Wind Precip Traffic Updated
Sensor [A]: Atmospheric - 62.1 - - 38.8 3.1 / N - - 4/18/2014 7:12:13 PM
Sensor [1]: SB Passing Bridgedeck Dry - 69.6 - - - - 12 / 65.2 4/18/2014 7:12:13 PM
68-IR271 @ IR77 (200067) Status Air Temp Sfc Temp Sub Temp Dew Temp Wind Precip Traffic Updated
Sensor [A]: Atmospheric - 59.7 - - 37.9 3.7 / N - - 4/18/2014 7:12:15 PM
Sensor [2]: IR271 SB Passing Lane Bridge Dry - 67.8 - - - - 0 / 26.7 4/18/2014 7:12:15 PM
Sensor [3]: IR271 SB Driving Lane Bridge Dry - 67.1 - - - - 22 / 55.3 4/18/2014 7:12:15 PM
69-IR275 MM 21 (200068) Status Air Temp Sfc Temp Sub Temp Dew Temp Wind Precip Traffic Updated
Sensor [A]: Atmospheric - 70.3 - - 39.9 1.9 / N - - 4/18/2014 7:11:44 PM
Sensor [0]: I275 MM21 NB Driving Dry - 78.8 55.4 - - - 38 / 62.1 4/18/2014 7:11:44 PM
Sensor [2]: I275 MM21 SB Driving Dry - 77.9 - - - - 51 / 60.3 4/18/2014 7:11:44 PM
70-IR275 HAM/CLER (200069) Status Air Temp Sfc Temp Sub Temp Dew Temp Wind Precip Traffic Updated
Sensor [A]: Atmospheric - 70.2 - - 36.5 2.5 / NE - - 4/18/2014 7:10:08 PM
Sensor [2]: I-275 NB Passing Dry - 72.5 - - - - 44 / 64.0 4/18/2014 7:10:08 PM
Sensor [3]: I-275 SB Passing Dry - 79.7 - - - - 41 / 65.2 4/18/2014 7:10:08 PM
Sensor [4]: I-275 SB Center Dry - 77.9 - - - - 51 / 65.2 4/18/2014 7:10:08 PM
71-I675 MONT/GRE (200070) Status Air Temp Sfc Temp Sub Temp Dew Temp Wind Precip Traffic Updated
Sensor [A]: Atmospheric - 68.7 - - 34.5 1.2 / W - - 4/18/2014 7:11:01 PM
Sensor [1]: I-675 North Bound Center Lane Dry - 75.2 - - - - 97 / 62.8 4/18/2014 7:11:01 PM
Sensor [2]: I-675 North Bound Passing Lane Dry - 78.8 - - - - 38 / 60.3 4/18/2014 7:11:01 PM
Sensor [3]: I-675 South Bound Passing Lane Dry - 79.7 - - - - 2 / 65.2 4/18/2014 7:11:01 PM
Sensor [4]: I-675 South Bound Driving Lane Dry - 80.6 - - - - 90 / 60.9 4/18/2014 7:11:01 PM
72-18 MM BUT/HAM (200071) Status Air Temp Sfc Temp Sub Temp Dew Temp Wind Precip Traffic Updated
Sensor [A]: Atmospheric - 69.6 - - 34.9 3.1 / NW - - 4/18/2014 7:10:48 PM
Sensor [0]: I75 NB Driving Dry - 77.0 50.9 - - - - 4/18/2014 7:10:48 PM
Sensor [1]: I75 NB Center Right Dry - 77.0 - - - - - 4/18/2014 7:10:48 PM
Sensor [2]: I75 NB Center Left Dry - 52.7 - - - - - 4/18/2014 7:10:48 PM
Sensor [3]: I75 NB Passing Dry - 77.0 - - - - - 4/18/2014 7:10:48 PM
73-I75mm27.5 SB (200072) Status Air Temp Sfc Temp Sub Temp Dew Temp Wind Precip Traffic Updated
Sensor [A]: Atmospheric - 68.5 - - 36.5 2.5 / N - - 4/18/2014 7:10:39 PM
74-IR75 MM 40 (200073) Status Air Temp Sfc Temp Sub Temp Dew Temp Wind Precip Traffic Updated
Sensor [A]: Atmospheric - 67.1 - - 37.2 4.3 / NE - - 4/18/2014 7:11:03 PM
Sensor [0]: IR75 North Bound Driving Lane Dry - 77.0 48.6 - - - 26 / 14.3 4/18/2014 7:11:03 PM
Sensor [1]: IR75 South Bound Driving Lane Dry - 77.0 - - - - 9 / 19.3 4/18/2014 7:11:03 PM
75-SR16@COS/MUS (200074) Status Air Temp Sfc Temp Sub Temp Dew Temp Wind Precip Traffic Updated
Sensor [A]: Atmospheric - 66.2 - - 37.2 3.1 / NW - - 4/18/2014 7:10:38 PM
Sensor [0]: SR16 EB Driving Bridgedeck Dry - 74.3 75.2 - - - - 4/18/2014 7:10:38 PM
Sensor [1]: SR16 EB Passing Dry - 75.2 - - - - - 4/18/2014 7:10:38 PM
Sensor [3]: SR16 WB Driving Dry - 75.2 - - - - - 4/18/2014 7:10:38 PM
76-IR75 MM 84 (200075) Status Air Temp Sfc Temp Sub Temp Dew Temp Wind Precip Traffic Updated
Sensor [A]: Atmospheric - 64.9 - - 39.2 1.9 / W - - 4/18/2014 7:12:08 PM
Sensor [0]: IR75 North Bound Driving Lane Dry - 68.9 77.9 - - - 60 / 57.8 4/18/2014 7:12:08 PM
Sensor [1]: IR75 North Bound Passing Lane Dry - 69.8 - - - - 52 / 64.0 4/18/2014 7:12:08 PM
Sensor [2]: IR75 South Bound Driving Lane Dry - 69.1 - - - - 39 / 59.0 4/18/2014 7:12:08 PM
77-IR75 MM 105 (200076) Status Air Temp Sfc Temp Sub Temp Dew Temp Wind Precip Traffic Updated
Sensor [A]: Atmospheric - 65.8 - - 39.4 6.2 / NW - - 4/18/2014 7:11:25 PM
Sensor [0]: IR75 North Bound Passing Lane Dry - 73.4 46.9 - - - 2 / 21.1 4/18/2014 7:11:25 PM
Sensor [2]: IR75 South Bound Driving Lane Dry - 73.4 - - - - 45 / 64.0 4/18/2014 7:11:25 PM
78-IR75 MM 119 (200077) Status Air Temp Sfc Temp Sub Temp Dew Temp Wind Precip Traffic Updated
Sensor [A]: Atmospheric - 66.4 - - 36.7 4.3 / NW - - 4/18/2014 7:11:27 PM
Sensor [0]: IR75 North Bound Passing Lane Dry - 76.1 47.1 - - - 32 / 60.9 4/18/2014 7:11:27 PM
Sensor [1]: IR75 South Bound Passing Lane Dry - - - - - - 28 / 60.9 4/18/2014 7:11:27 PM
79-IR75 MM 141 (200078) Status Air Temp Sfc Temp Sub Temp Dew Temp Wind Precip Traffic Updated
Sensor [A]: Atmospheric - 65.3 - - 36.0 5.6 / W - - 4/18/2014 7:12:27 PM
Sensor [0]: IR75 North Bound Driving Lane Dry - 74.3 - - - - 49 / 62.1 4/18/2014 7:12:27 PM
Sensor [2]: IR75 South Bound Passing Lane Dry - 76.1 - - - - 19 / 60.3 4/18/2014 7:12:27 PM
80-IR77 MM 0 (200079) Status Air Temp Sfc Temp Sub Temp Dew Temp Wind Precip Traffic Updated
Sensor [A]: Atmospheric - 70.7 - - 32.0 0.6 / NW - - 4/18/2014 7:06:00 PM
Sensor [0]: IR77 North Bound Driving Lane Dry - 76.5 60.6 - - - 22 / 60.3 4/18/2014 7:06:00 PM
Sensor [1]: IR77 North Bound Passing Lane Dry - 75.9 - - - - 24 / 62.8 4/18/2014 7:06:00 PM
Sensor [2]: IR77 South Bound Passing Lane Error - - - - - - 0 / 65.2 4/18/2014 7:06:00 PM
Sensor [3]: IR77 South Bound Driving Lane Error - - - - - - 9 / 62.8 4/18/2014 7:06:00 PM
81-IR77 MM 16 (200080) Status Air Temp Sfc Temp Sub Temp Dew Temp Wind Precip Traffic Updated
Sensor [A]: Atmospheric - 68.5 - - 32.0 3.7 / N - - 4/18/2014 7:05:00 PM
Sensor [0]: IR77 North Bound Driving Lane Dry - 75.9 - - - - 33 / 62.1 4/18/2014 7:05:00 PM
Sensor [1]: IR77 North Bound Passing Lane Error - - - - - - 8 / 65.2 4/18/2014 7:05:00 PM
Sensor [2]: IR77 South Bound Passing Lane Dry - 75.2 - - - - 7 / 65.2 4/18/2014 7:05:00 PM
Sensor [3]: IR77 South Bound Driving Lane Error - - - - - - 31 / 60.9 4/18/2014 7:05:00 PM
82-IR77 MM 36 (200081) Status Air Temp Sfc Temp Sub Temp Dew Temp Wind Precip Traffic Updated
Sensor [A]: Atmospheric - 68.2 - - 32.0 - - - 4/18/2014 7:06:00 PM
Sensor [0]: IR77 North Bound Driving Lane Error - - 60.6 - - - 27 / 64.0 4/18/2014 7:06:00 PM
Sensor [1]: IR77 North Bound Passing Lane Dry - 75.2 - - - - 17 / 62.8 4/18/2014 7:06:00 PM
Sensor [2]: IR77 South Bound Passing Lane Dry - 74.1 - - - - 0 / 65.2 4/18/2014 7:06:00 PM
Sensor [3]: IR77 South Bound Driving Lane Error - - - - - - 39 / 60.3 4/18/2014 7:06:00 PM
83-IR77 MM 59 **Under Construction** (200082) Status Air Temp Sfc Temp Sub Temp Dew Temp Wind Precip Traffic Updated
Sensor [A]: Atmospheric - 65.8 - - 33.8 1.9 / W - - 4/18/2014 7:12:42 PM
84-IR77 MM 93 UNDER CONSTRUCTION (200083) Status Air Temp Sfc Temp Sub Temp Dew Temp Wind Precip Traffic Updated
Sensor [A]: Atmospheric - 64.8 - - 35.6 1.9 / NW - - 4/18/2014 7:05:00 PM
Sensor [0]: IR77 North Bound Driving Lane Error - - 53.1 - - - 0 / 52.8 4/18/2014 7:05:00 PM
Sensor [1]: IR77 North Bound Passing Lane Error - - - - - - 7 / 5.0 4/18/2014 7:05:00 PM
Sensor [2]: IR77 South Bound Passing Lane Bridge Error - - - - - - 0 / 9.9 4/18/2014 7:05:00 PM
Sensor [3]: IR77 South Bound Driving Lane Bridge Error - - - - - - 64 / 65.2 4/18/2014 7:05:00 PM
85-SR2 @ Huron River (200084) Status Air Temp Sfc Temp Sub Temp Dew Temp Wind Precip Traffic Updated
Sensor [A]: Atmospheric - 57.4 - - 40.5 5.0 / N - - 4/18/2014 7:12:48 PM
Sensor [1]: SR2 WB Passing Lane Dry - 67.8 - - - - 1 / 5.0 4/18/2014 7:12:48 PM
Sensor [2]: SR2 WB Driving Lane Dry - 68.0 - - - - 38 / 62.1 4/18/2014 7:12:48 PM
86-IR90 @ SR57 (200085) Status Air Temp Sfc Temp Sub Temp Dew Temp Wind Precip Traffic Updated
Sensor [A]: Atmospheric - 59.5 - - 39.2 2.5 / NE - - 4/18/2014 7:05:00 PM
Sensor [0]: I-90 East Bound Driving Lane Error - - 32.2 - - - 34 / 6.2 4/18/2014 7:05:00 PM
Sensor [1]: I-90 West Bound Driving Lane Dry - 68.0 - - - - 0 / 5.0 4/18/2014 7:05:00 PM
87-IR90 ATB/LAKE (200086) Status Air Temp Sfc Temp Sub Temp Dew Temp Wind Precip Traffic Updated
Sensor [A]: Atmospheric - 48.7 - - 37.0 3.1 / N - - 4/18/2014 7:12:50 PM
Sensor [1]: I90 Eastbound Passing Lane Dry - 62.1 - - - - 2 / 5.0 4/18/2014 7:12:50 PM
88-IR90 @ SR11 (200087) Status Air Temp Sfc Temp Sub Temp Dew Temp Wind Precip Traffic Updated
Sensor [A]: Atmospheric - 51.6 - - 37.4 7.5 / NW - - 4/18/2014 7:05:00 PM
Sensor [0]: I-90 East Bound Driving Lane Error - - 32.9 - - - 0 / 158.4 4/18/2014 7:05:00 PM
Sensor [1]: I-90 East Bound Passing Lane Dry - 68.5 - - - - 13 / 65.2 4/18/2014 7:05:00 PM
Sensor [2]: I-90 West Bound Passing Lane Dry - 64.4 - - - - 0 / 65.2 4/18/2014 7:05:00 PM
Sensor [3]: I-90 West Bound Driving Lane Dry - 68.0 - - - - 31 / 60.9 4/18/2014 7:05:00 PM
Sensor [4]: SR 11 South Bound Bridge over I-90 Error - - - - - - 0 / 16.8 4/18/2014 7:05:00 PM
89-IR90 @ PA Line (200088) Status Air Temp Sfc Temp Sub Temp Dew Temp Wind Precip Traffic Updated
Sensor [A]: Atmospheric - 42.6 - - 35.6 3.1 / S - - 4/12/2012 8:59:00 AM
Sensor [0]: Pavement Sensors Removed for Construction Error - - 48.2 - - - 832 / 57.2 4/12/2012 8:59:00 AM
Sensor [1]: Pavement Sensors Removed for Construction Error - - - - - - 679 / 28.0 4/12/2012 8:59:00 AM
Sensor [2]: Pavement Sensors Removed for Construction Error - - - - - - 727 / 23.0 4/12/2012 8:59:00 AM
Sensor [3]: Pavement Sensors Removed for Construction Error - - - - - - 0 / 16.8 4/12/2012 8:59:00 AM
90-IR80 @ PA Line (200089) Status Air Temp Sfc Temp Sub Temp Dew Temp Wind Precip Traffic Updated
Sensor [A]: Atmospheric - 64.8 - - 37.4 5.0 / N - - 4/18/2014 7:06:00 PM
Sensor [0]: I-80 East Bound Driving Lane Error - - 54.3 - - - 21 / 49.1 4/18/2014 7:06:00 PM
Sensor [1]: I-80 East Bound Passing Lane Error - - - - - - 0 / 47.8 4/18/2014 7:06:00 PM
Sensor [2]: I-80 West Bound Passing Lane Error - - - - - - 0 / 9.9 4/18/2014 7:06:00 PM
91-IR76 MAH/POR (200090) Status Air Temp Sfc Temp Sub Temp Dew Temp Wind Precip Traffic Updated
Sensor [A]: Atmospheric - 62.4 - - 36.0 1.9 / NE - - 4/18/2014 7:12:51 PM
Sensor [1]: I-76 East Bound Passing Lane Dry - 69.6 - - - - 22 / 55.9 4/18/2014 7:12:51 PM
Sensor [2]: I-76 West Bound Passing Lane Bridge Dry - 72.1 - - - - 17 / 64.0 4/18/2014 7:12:51 PM
Sensor [3]: I-76 West Bound Driving Lane Bridge Dry - 69.1 - - - - 43 / 64.0 4/18/2014 7:12:51 PM
92-IR76 POR/SUM (200091) Status Air Temp Sfc Temp Sub Temp Dew Temp Wind Precip Traffic Updated
Sensor [A]: Atmospheric - 62.2 - - 37.9 3.7 / NE - - 4/18/2014 7:11:00 PM
Sensor [1]: I-76 East Bound Passing Lane Bridge Dry - 70.7 - - - - 43 / 5.0 4/18/2014 7:11:00 PM
Sensor [2]: I-76 West Bound Passing Lane Dry - 68.0 50.9 - - - 0 / 64.0 4/18/2014 7:11:00 PM
Sensor [3]: I-76 West Bound Driving Lane Dry - 68.0 - - - - 53 / 62.8 4/18/2014 7:11:00 PM
94-SR11 ATB/TRUM (200093) Status Air Temp Sfc Temp Sub Temp Dew Temp Wind Precip Traffic Updated
Sensor [A]: Atmospheric - 67.5 - - 32.0 4.3 / S - - 4/17/2014 6:05:00 PM
Sensor [0]: SR11 North Bound Driving Lane Dry - 80.1 44.2 - - - 23 / 65.2 4/17/2014 6:05:00 PM
Sensor [1]: SR11 North Bound Passing Lane Dry - 82.4 - - - - 3 / 65.2 4/17/2014 6:05:00 PM
Sensor [2]: SR11 South Bound Passing Lane Error - - - - - - 3 / 65.2 4/17/2014 6:05:00 PM
Sensor [3]: SR11 South Bound Driving Lane Dry - 80.1 - - - - 17 / 64.0 4/17/2014 6:05:00 PM
95-SR11 MAH/COL (200094) Status Air Temp Sfc Temp Sub Temp Dew Temp Wind Precip Traffic Updated
Sensor [A]: Atmospheric - 63.1 - - 37.4 5.0 / N - - 4/18/2014 7:03:00 PM
Sensor [0]: SR11 North Bound Driving Lane Error - - 45.5 - - - 0 / 64.0 4/18/2014 7:03:00 PM
Sensor [2]: SR11 South Bound Passing Lane Error - - - - - - 6 / 60.9 4/18/2014 7:03:00 PM
Sensor [3]: SR11 South Bound Driving Lane Error - - - - - - 0 / 65.2 4/18/2014 7:03:00 PM
97-SR315 @ I270 (200096) Status Air Temp Sfc Temp Sub Temp Dew Temp Wind Precip Traffic Updated
Sensor [A]: Atmospheric - 66.9 - - 39.6 1.9 / NE - - 4/18/2014 7:10:06 PM
Sensor [2]: I270W Driving Lane Dry - 74.3 - - - - 6 / 60.3 4/18/2014 7:10:06 PM
Sensor [5]: IR Ice Detection Sensor Dry - - - - - - - 4/18/2014 7:10:06 PM
98-I270 SB Ramp to SR161 EB (200097) Status Air Temp Sfc Temp Sub Temp Dew Temp Wind Precip Traffic Updated
Sensor [A]: Atmospheric - 66.6 - - 36.9 4.3 / NE - - 4/18/2014 7:11:08 PM
Sensor [2]: I270 SB Center Lane Dry - 73.4 - - - - 0 / 62.1 4/18/2014 7:11:08 PM
Sensor [4]: SR161 WB Passing Lane Deck Dry - 75.2 - - - - 0 / 60.3 4/18/2014 7:11:08 PM
Sensor [5]: SR161 WB Driving Lane Dry - 76.1 - - - - 0 / 62.1 4/18/2014 7:11:08 PM
Sensor [6]: I270SB to SR161EB Flyover Ramp Dry - 74.3 - - - - 69 / 26.7 4/18/2014 7:11:08 PM
99-US30 @ Dalton (200098) Status Air Temp Sfc Temp Sub Temp Dew Temp Wind Precip Traffic Updated
Sensor [A]: Atmospheric - 66.7 - - 41.0 1.2 / SE - - 4/18/2014 7:04:00 PM
Sensor [0]: US30E Driving Lane Dry - 73.4 42.8 - - - 0 / 54.1 4/18/2014 7:04:00 PM
Sensor [1]: US30E Passing Lane Dry - 74.1 - - - - 18 / 57.2 4/18/2014 7:04:00 PM
Sensor [2]: US30W Passing Lane - Bridgedeck Dry - 75.9 - - - - 11 / 54.1 4/18/2014 7:04:00 PM
Sensor [3]: US30W Driving Lane - Bridgedeck Error - - - - - - 761 / 62.1 4/18/2014 7:04:00 PM
100-SR225 @ Berlin Reservoir (200099) Status Air Temp Sfc Temp Sub Temp Dew Temp Wind Precip Traffic Updated
Sensor [A]: Atmospheric - 59.7 - - 32.0 2.5 / S - - 4/18/2014 7:05:00 PM
Sensor [0]: SR225 NB Lane Error - - 72.7 - - - 0 / 65.2 4/18/2014 7:05:00 PM
Sensor [1]: SR225 SB Lane - Bridge Error - - - - - - 4 / 9.9 4/18/2014 7:05:00 PM
101-SR45 @ Rock Creek (200100) Status Air Temp Sfc Temp Sub Temp Dew Temp Wind Precip Traffic Updated
Sensor [A]: Atmospheric - 48.4 - - 36.5 - - - 4/17/2014 9:33:56 PM
102-SR7 @ SR167 East (200101) Status Air Temp Sfc Temp Sub Temp Dew Temp Wind Precip Traffic Updated
Sensor [A]: Atmospheric - 36.1 - - 32.0 3.7 / NE - - 11/26/2013 11:55:00 AM
Sensor [0]: SR7 NB Lane Error - - - - - - 6 / 42.3 11/26/2013 11:55:00 AM
Sensor [1]: SR7 SB Lane - Bridge Error - - - - - - 0 / 5.0 11/26/2013 11:55:00 AM
103- I-70 @ SR-79 (200102) Status Air Temp Sfc Temp Sub Temp Dew Temp Wind Precip Traffic Updated
Sensor [A]: Atmospheric - 66.4 - - 39.6 3.7 / NW - - 4/18/2014 7:10:52 PM
Sensor [1]: I 70 EB Passing Dry - 74.3 - - - - 36 / 50.3 4/18/2014 7:10:52 PM
Sensor [4]: I 79 NB Bridgedeck Dry - 76.1 - - - - - 4/18/2014 7:10:52 PM
Sensor [5]: I 79 SB Bridgedeck Dry - 74.3 - - - - - 4/18/2014 7:10:52 PM
104-SR 3 KNOX/Ashland (200103) Status Air Temp Sfc Temp Sub Temp Dew Temp Wind Precip Traffic Updated
Sensor [A]: Atmospheric - 65.8 - - 41.0 3.7 / W - - 4/18/2014 7:04:00 PM
Sensor [0]: SR3 NB Lane Dry - 75.9 56.5 - - - 8 / 50.3 4/18/2014 7:04:00 PM
Sensor [1]: SR3 SB Lane Error - - - - - - 4 / 55.3 4/18/2014 7:04:00 PM
105-IR70/IR75 (200104) Status Air Temp Sfc Temp Sub Temp Dew Temp Wind Precip Traffic Updated
Sensor [A]: Atmospheric - 66.9 - - 50.2 1.9 / W - - 4/18/2014 7:10:50 PM
Sensor [0]: I70WB Driving Departure Dry - 74.3 - - - - 12 / 60.3 4/18/2014 7:10:50 PM
Sensor [3]: I75SB Passing Dry - 75.4 - - - - 24 / 65.2 4/18/2014 7:10:50 PM
106-SR39 @ Sugarcreek (200105) Status Air Temp Sfc Temp Sub Temp Dew Temp Wind Precip Traffic Updated
Sensor [A]: Atmospheric - 62.8 - - 37.4 3.1 / S Snow / 0.0 - 4/18/2014 7:07:00 PM
Sensor [0]: SR39 EB Lane Error - - - - - - 6 / 51.0 4/18/2014 7:07:00 PM
Sensor [1]: SR39 WB Lane Error - - 60.1 - - - 131 / 47.8 4/18/2014 7:07:00 PM
107-US250 @ Ulrichsville (200106) Status Air Temp Sfc Temp Sub Temp Dew Temp Wind Precip Traffic Updated
Sensor [A]: Atmospheric - 66.0 - - 34.7 3.7 / SE - - 4/18/2014 7:12:44 PM
Sensor [0]: US250 EB Driving Lane Dry - 74.8 - - - - 0 / 5.0 4/18/2014 7:12:44 PM
Sensor [2]: US250 WB Passing Lane Dry - 78.8 - - - - 4 / 32.9 4/18/2014 7:12:44 PM
108-SR183 @ Minerva (200107) Status Air Temp Sfc Temp Sub Temp Dew Temp Wind Precip Traffic Updated
Sensor [A]: Atmospheric - 67.5 - - 39.2 1.2 / NW - - 4/18/2014 7:03:00 PM
Sensor [0]: SR183 NB Lane - Bridgedeck Error - - 55.4 - - - 9 / 70.8 4/18/2014 7:03:00 PM
Sensor [1]: SR183 SB Lane Error - - - - - - 4 / 9.9 4/18/2014 7:03:00 PM
109-SR22 @ SR151 (200108) Status Air Temp Sfc Temp Sub Temp Dew Temp Wind Precip Traffic Updated
Sensor [A]: Atmospheric - 65.1 - - 32.4 3.7 / E - - 4/18/2014 7:12:45 PM
Sensor [0]: SR22E Driving Lane Dry - 75.2 77.0 - - - 19 / 67.1 4/18/2014 7:12:45 PM
Sensor [1]: SR22W Passing Lane Dry - 75.2 - - - - 2 / 73.9 4/18/2014 7:12:45 PM
110-SR7 @ SR213 (200109) Status Air Temp Sfc Temp Sub Temp Dew Temp Wind Precip Traffic Updated
Sensor [A]: Atmospheric - 67.1 - - 33.8 1.9 / W - - 4/18/2014 7:07:00 PM
Sensor [0]: SR7 NB Driving Error - - 37.8 - - - 6 / 42.3 4/18/2014 7:07:00 PM
Sensor [1]: SR7 NB Passing Dry - 75.9 - - - - 0 / 65.2 4/18/2014 7:07:00 PM
Sensor [2]: SR7 SB Passing Departure Error - - - - - - 0 / 57.2 4/18/2014 7:07:00 PM
Sensor [3]: SR7 SB Driving Departure Dry - 75.2 - - - - 17 / 52.2 4/18/2014 7:07:00 PM
Sensor [4]: SR7 NB Driving Bridgedeck Dry - 76.5 - - - - - 4/18/2014 7:07:00 PM
Sensor [5]: SR7 SB Passing Bridgedeck Error - - - - - - - 4/18/2014 7:07:00 PM
111-I70 MM 114 (200110) Status Air Temp Sfc Temp Sub Temp Dew Temp Wind Precip Traffic Updated
Sensor [A]: Atmospheric - 66.2 - - 37.0 - - - 4/18/2014 7:10:30 PM
Sensor [0]: I70 EB Driving Lane Dry - 71.6 61.7 - - - 86 / 47.8 4/18/2014 7:10:30 PM
Sensor [1]: I70 EB Passing Lane Dry - 71.6 - - - - 71 / 75.8 4/18/2014 7:10:30 PM
Sensor [2]: I70 WB Passing Lane - Bridge Deck Dry - 72.5 - - - - 59 / 67.7 4/18/2014 7:10:30 PM
112-USR 27 @ 21 MM (200111) Status Air Temp Sfc Temp Sub Temp Dew Temp Wind Precip Traffic Updated
Sensor [A]: Atmospheric - 66.2 - - 35.1 1.9 / NE - - 4/18/2014 7:11:47 PM
Sensor [0]: SR27 NB Lane Dry - 77.0 48.4 - - - 17 / 57.2 4/18/2014 7:11:47 PM
Sensor [1]: SR27 SB Lane Dry - 77.0 - - - - 17 / 47.8 4/18/2014 7:11:47 PM
113-I-275 @ USR 52 (200112) Status Air Temp Sfc Temp Sub Temp Dew Temp Wind Precip Traffic Updated
Sensor [A]: Atmospheric - 69.4 - - 36.0 - - - 4/18/2014 7:10:10 PM
Sensor [1]: I275N Passing Lane Dry - 76.1 - - - - 35 / 62.8 4/18/2014 7:10:10 PM
Sensor [2]: I275S Passing Lane - Bridgedeck Dry - 77.0 - - - - 69 / 60.9 4/18/2014 7:10:10 PM
Sensor [4]: I275 SB Driving Lane - Bridge Deck Dry - 77.0 - - - - 64 / 60.3 4/18/2014 7:10:10 PM
114-IR71 @ US36 (38000) Status Air Temp Sfc Temp Sub Temp Dew Temp Wind Precip Traffic Updated
Sensor [A]: Atmospheric - 67.1 - - 33.4 4.3 / N - - 4/18/2014 7:10:42 PM
Sensor [0]: I71 SB Driving Dry - 75.2 - - - - - 4/18/2014 7:10:42 PM
Sensor [2]: US36 WB Deck Dry - 77.0 - - - - - 4/18/2014 7:10:42 PM
115-IR71 @ Schrock Road (38001) Status Air Temp Sfc Temp Sub Temp Dew Temp Wind Precip Traffic Updated
Sensor [A]: Atmospheric - 67.8 - - 67.6 3.7 / W - - 4/18/2014 7:10:44 PM
Sensor [0]: Schrock Rd Dry - 77.4 - - - - - 4/18/2014 7:10:44 PM
Sensor [1]: Schrock Rd Deck Dry - 76.5 - - - - - 4/18/2014 7:10:44 PM
116-IR70W @ I270 (38004) Status Air Temp Sfc Temp Sub Temp Dew Temp Wind Precip Traffic Updated
Sensor [A]: Atmospheric - -39.6 - - - 5.6 / NW - - 4/18/2014 7:10:46 PM
Sensor [0]: I-70 EB Drive Error - - - - - - - 4/18/2014 7:10:46 PM
117-IR70 @ SR29 (38005) Status Air Temp Sfc Temp Sub Temp Dew Temp Wind Precip Traffic Updated
Sensor [A]: Atmospheric - 68.5 - - 27.0 4.3 / NW - - 4/18/2014 7:10:49 PM
Sensor [0]: OH29 NB Drive Error - - - - - - - 4/18/2014 7:10:49 PM
Sensor [1]: OH29 NB Deck Error - - - - - - - 4/18/2014 7:10:49 PM
Sensor [2]: I-70 WB Drive Dry - 73.8 - - - - - 4/18/2014 7:10:49 PM
Sensor [3]: I-70 EB Passing Error - - - - - - - 4/18/2014 7:10:49 PM
118-IR70/IR71/SR315 (38006) Status Air Temp Sfc Temp Sub Temp Dew Temp Wind Precip Traffic Updated
Sensor [A]: Atmospheric - 68.0 - - 29.5 2.5 / N - - 4/18/2014 7:05:53 PM
Sensor [0]: I-71 / OH315 NB Deck Dry - 70.5 - - - - - 4/18/2014 7:05:53 PM
Sensor [1]: I70 EB to SR315 Ramp Dry - 77.0 - - - - - 4/18/2014 7:05:53 PM
119-IR71S @ I270 (38007) Status Air Temp Sfc Temp Sub Temp Dew Temp Wind Precip Traffic Updated
Sensor [A]: Atmospheric - 33.1 - - 23.2 7.5 / N - - 1/20/2014 7:31:46 AM
Sensor [2]: I270 EB Passing Error - - - - - - - 1/20/2014 7:31:46 AM
120-US33 @ Hamilton Road (38010) Status Air Temp Sfc Temp Sub Temp Dew Temp Wind Precip Traffic Updated
Sensor [A]: Atmospheric - 69.1 - - 57.7 5.0 / E - - 4/18/2014 4:31:20 PM
Sensor [0]: US33 EB Driving Dry - 90.5 - - - - - 4/18/2014 4:31:20 PM
Sensor [1]: US33 EB Passing Dry - 87.8 - - - - - 4/18/2014 4:31:20 PM
121-I-670 Over Airport Connector (38014) Status Air Temp Sfc Temp Sub Temp Dew Temp Wind Precip Traffic Updated
Sensor [A]: Atmospheric - 67.8 - - 33.3 3.7 / N - - 4/18/2014 7:11:34 PM
Sensor [0]: Airport Con Driving REMOVED FOR CONSTRUCTION Error - - - - - - - 4/18/2014 7:11:34 PM
Sensor [1]: Airport Con Deck Dry - 75.4 - - - - - 4/18/2014 7:11:34 PM
Sensor [2]: I-670 EB Passing Dry - 73.8 - - - - - 4/18/2014 7:11:34 PM
Sensor [3]: I-670 WB Passing Dry - 73.8 - - - - - 4/18/2014 7:11:34 PM
122-Medina Line Rd. Over I-271 (612000) Status Air Temp Sfc Temp Sub Temp Dew Temp Wind Precip Traffic Updated
Sensor [A]: Atmospheric - 62.2 - - 34.0 1.9 / N - - 4/18/2014 7:10:07 PM
Sensor [0]: SB Bridge Dry - 69.4 - - - - - 4/18/2014 7:10:07 PM
Sensor [1]: SB Road Error - - - - - - - 4/18/2014 7:10:07 PM
123-Steels Corner Rd. /Mud Creek (612003) Status Air Temp Sfc Temp Sub Temp Dew Temp Wind Precip Traffic Updated
Sensor [A]: Atmospheric - 64.0 - - 36.1 - - - 4/18/2014 7:10:08 PM
Sensor [0]: WB Bridge Dry - 72.9 - - - - - 4/18/2014 7:10:08 PM
Sensor [1]: WB Road Error - - 77.9 - - - - 4/18/2014 7:10:08 PM
124-Old Mill Rd. Over I-480 (612004) Status Air Temp Sfc Temp Sub Temp Dew Temp Wind Precip Traffic Updated
Sensor [A]: Atmospheric - 50.4 - - 28.6 3.7 / N - - 4/18/2014 7:10:11 PM
Sensor [1]: I-480 East Bound Passing Lane Dry - 67.1 - - - - - 4/18/2014 7:10:11 PM
125-Ridgewood Rd. Over Rt 21 (612006) Status Air Temp Sfc Temp Sub Temp Dew Temp Wind Precip Traffic Updated
Sensor [A]: Atmospheric - 62.1 - - 36.5 3.1 / N - - 4/18/2014 7:10:13 PM
Sensor [0]: EB Bridge Deck Error - - - - - - - 4/18/2014 7:10:13 PM
126-Killian Rd. Over I-77 (612011) Status Air Temp Sfc Temp Sub Temp Dew Temp Wind Precip Traffic Updated
Sensor [A]: Atmospheric - 64.4 - - 31.3 - - - 4/18/2014 7:10:15 PM
Sensor [0]: EB Bridge Dry - 75.2 61.3 - - - - 4/18/2014 7:10:15 PM
127-US 6 Williams County (582000) Status Air Temp Sfc Temp Sub Temp Dew Temp Wind Precip Traffic Updated
Sensor [A]: Atmospheric - 63.1 - - 32.9 12.4 / W - - 4/18/2014 7:10:16 PM
Sensor [2]: US6 EB Error - 77.2 58.8 - - - - 4/18/2014 7:10:16 PM
128-US 20 @ SLM 1.5 ***Under Construction*** (582001) Status Air Temp Sfc Temp Sub Temp Dew Temp Wind Precip Traffic Updated
Sensor [A]: Atmospheric - 62.6 - - 35.6 8.1 / NW - - 4/18/2014 7:10:18 PM
129-US 20 @ SLM 11.5 (582002) Status Air Temp Sfc Temp Sub Temp Dew Temp Wind Precip Traffic Updated
Sensor [A]: Atmospheric - 64.6 - - 37.8 9.3 / NW - - 4/18/2014 7:10:20 PM
Sensor [2]: SR-20A WB Approach Dry - 74.3 58.5 - - - - 4/18/2014 7:10:20 PM
Sensor [3]: SR-20A WB Deck Dry - 79.3 - - - - - 4/18/2014 7:10:20 PM
130-US 20A @ SLM 2.5 Fulton (582003) Status Air Temp Sfc Temp Sub Temp Dew Temp Wind Precip Traffic Updated
Sensor [A]: Atmospheric - 66.6 - - 9.0 1.9 / W Rain / 0.0 - 4/18/2014 7:10:22 PM
Sensor [0]: US-20 EB Deck Dry - 76.5 - - - - - 4/18/2014 7:10:22 PM
Sensor [1]: US-20 EB Approach Dry - 79.9 - - - - - 4/18/2014 7:10:22 PM
131-US 20 @ SLM 9.5 Fulton (582004) Status Air Temp Sfc Temp Sub Temp Dew Temp Wind Precip Traffic Updated
Sensor [A]: Atmospheric - 63.7 - - 34.2 - - - 4/18/2014 7:10:24 PM
Sensor [0]: US-20 WB Deck Dry - 77.4 - - - - - 4/18/2014 7:10:24 PM
Sensor [1]: US-20 EB Approach Dry - 76.3 - - - - - 4/18/2014 7:10:24 PM
132-SR 64 @ SLM 6.0 Fulton (582005) Status Air Temp Sfc Temp Sub Temp Dew Temp Wind Precip Traffic Updated
Sensor [A]: Atmospheric - 64.4 - - 36.1 - - - 4/18/2014 7:10:25 PM
133-US 6 @ SLM .5 (582006) Status Air Temp Sfc Temp Sub Temp Dew Temp Wind Precip Traffic Updated
Sensor [A]: Atmospheric - 65.5 - - 36.5 8.1 / NW - - 4/18/2014 7:10:27 PM
Sensor [0]: US-6 WB Dry - 73.4 43.2 - - - - 4/18/2014 7:10:27 PM
134-SR 108 @ SLM .5 (582007) Status Air Temp Sfc Temp Sub Temp Dew Temp Wind Precip Traffic Updated
Sensor [A]: Atmospheric - 64.8 - - 27.5 12.4 / NW - - 4/18/2014 7:10:08 PM
135-US Rt 6 @ Maumee River (582008) Status Air Temp Sfc Temp Sub Temp Dew Temp Wind Precip Traffic Updated
Sensor [A]: Atmospheric - 65.3 - - 39.2 8.7 / N - - 4/18/2014 7:10:09 PM
Sensor [0]: US-6 EB Deck Error - 73.6 - - - - - 4/18/2014 7:10:09 PM
Sensor [1]: US-6 WB Deck Dry - 75.6 - - - - - 4/18/2014 7:10:09 PM
136-Rt 65 South Henry County (582009) Status Air Temp Sfc Temp Sub Temp Dew Temp Wind Precip Traffic Updated
Sensor [A]: Atmospheric - 65.1 - - 35.2 11.8 / NW - - 4/18/2014 7:10:11 PM
Sensor [0]: SR-65 NB Dry - 76.1 - - - - - 4/18/2014 7:10:11 PM
137 - SR 64 @ SLM 7.5 Lucas (582010) Status Air Temp Sfc Temp Sub Temp Dew Temp Wind Precip Traffic Updated
Sensor [A]: Atmospheric - 64.9 - - 36.7 5.6 / E - - 4/18/2014 7:10:13 PM
Sensor [0]: SR-64 EB Approach Dry - 64.2 - - - - - 4/18/2014 7:10:13 PM
Sensor [1]: SR-64 EB @ RPU Dry - 74.1 - - - - - 4/18/2014 7:10:13 PM
138-US 24 near Grand Rapids (582011) Status Air Temp Sfc Temp Sub Temp Dew Temp Wind Precip Traffic Updated
Sensor [A]: Atmospheric - 65.8 - - 36.3 2.5 / N - - 4/18/2014 7:10:15 PM
Sensor [0]: SR-578 SB Maumee River Dry - 76.6 56.8 - - - - 4/18/2014 7:10:15 PM
Sensor [1]: SR-578 SB Dry - 74.1 - - - - - 4/18/2014 7:10:15 PM
139-I-80 & I-475 Lucas ***Under Construction*** (582012) Status Air Temp Sfc Temp Sub Temp Dew Temp Wind Precip Traffic Updated
Sensor [A]: Atmospheric - 72.1 - - 71.6 1.9 / SW - - 10/3/2013 12:40:42 PM
Sensor [0]: I-475 NB Deck Dry - 77.0 - - - - - 10/3/2013 12:40:42 PM
Sensor [1]: I-475 SB Approach Error - - - - - - - 10/3/2013 12:40:42 PM
140-IR 475 @ US 23 Split ***Under Construction*** (582013) Status Air Temp Sfc Temp Sub Temp Dew Temp Wind Precip Traffic Updated
Sensor [A]: Atmospheric - - - - - / Unknown - - 4/18/2014 4:40:46 PM
Sensor [6]: US-23 NB Pass Ln Deck Dry - 94.1 - - - - 42 / 62.1 4/8/2014 3:00:47 PM
Sensor [7]: US-23 SB Pass Ln Dry - 89.6 - - - - 65 / 54.1 4/8/2014 3:00:47 PM
141-IR 75 @ SLM 4.9 475 Split (582014) Status Air Temp Sfc Temp Sub Temp Dew Temp Wind Precip Traffic Updated
Sensor [A]: Atmospheric - 58.1 - - 47.3 9.3 / E - - 4/18/2014 7:10:09 PM
Sensor [0]: I-475 WB Dry - 70.7 - - - - - 4/18/2014 7:10:09 PM
Sensor [1]: I-75 SB Dry - 66.2 - - - - - 4/18/2014 7:10:09 PM
Sensor [2]: I-475 EB Deck Dry - 68.0 - - - - - 4/18/2014 7:10:09 PM
Sensor [3]: I-475 EB Departure Dry - 68.9 - - - - - 4/18/2014 7:10:09 PM
142 - I-280 @ Veterans Glass City Skyway (VGCS) (582016) Status Air Temp Sfc Temp Sub Temp Dew Temp Wind Precip Traffic Updated
Sensor [A]: Atmospheric - 55.2 - - 41.0 14.3 / NE - - 4/18/2014 7:10:10 PM
Sensor [0]: NB I-280 Driving Lane Dry - 64.6 - - - - 43 / 60.3 4/18/2014 7:10:10 PM
Sensor [1]: NB I-280 Center Lane Dry - 64.6 - - - - 66 / 52.8 4/18/2014 7:10:10 PM
Sensor [4]: SB I-280 Center Lane Dry - 65.3 - - - - 53 / 60.3 4/18/2014 7:10:10 PM
143-SR 2 @ MP 31.8 Lucas (582017) Status Air Temp Sfc Temp Sub Temp Dew Temp Wind Precip Traffic Updated
Sensor [A]: Atmospheric - 53.1 - - 43.5 4.3 / NE - - 4/18/2014 7:10:13 PM
144-IR 75 & Eagleville Rd. (582018) Status Air Temp Sfc Temp Sub Temp Dew Temp Wind Precip Traffic Updated
Sensor [A]: Atmospheric - 66.0 - - 41.2 5.6 / NW - - 4/18/2014 7:10:14 PM
Sensor [0]: I-75 NB Deck Error - - - - - - - 4/18/2014 7:10:14 PM
Sensor [1]: I-75 SB Deck Error - - - - - - - 4/18/2014 7:10:14 PM
145-IR 75 @ SLM 18.36 Wood (582019) Status Air Temp Sfc Temp Sub Temp Dew Temp Wind Precip Traffic Updated
Sensor [A]: Atmospheric - 66.2 - - 38.8 13.7 / NW - - 4/18/2014 7:10:16 PM
Sensor [0]: I-75 NB Approach Error - 73.9 - - - - - 4/18/2014 7:10:16 PM
Sensor [1]: I-75 SB Deck Dry - 73.9 - - - - - 4/18/2014 7:10:16 PM
146-I-75 @ I-475 Wood ***Under Construction*** (582020) Status Air Temp Sfc Temp Sub Temp Dew Temp Wind Precip Traffic Updated
Sensor [A]: Atmospheric - 59.4 - - - 7.5 / NE - - 4/18/2014 7:10:21 PM
147-I-75 @ I-80 Wood County (582021) Status Air Temp Sfc Temp Sub Temp Dew Temp Wind Precip Traffic Updated
Sensor [A]: Atmospheric - 59.2 - - 47.8 8.7 / NE - - 4/18/2014 7:10:24 PM
Sensor [0]: I-75 NB Deck Dry - 70.3 - - - - - 4/18/2014 7:10:24 PM
Sensor [1]: I-75 SB Deck Dry - 70.3 - - - - - 4/18/2014 7:10:24 PM
148-US-6 @ Rt. 23 (582022) Status Air Temp Sfc Temp Sub Temp Dew Temp Wind Precip Traffic Updated
Sensor [A]: Atmospheric - 64.4 - - 44.6 6.8 / NE - - 4/18/2014 7:10:26 PM
Sensor [0]: US-6 EB Dry - 75.2 - - - - 16 / 37.3 4/18/2014 7:10:26 PM
Sensor [1]: US-23 NB Dry - 74.3 - - - - 6 / 26.7 4/18/2014 7:10:26 PM
Sensor [2]: US-6 EB Surface Dry - - - - - - - 4/18/2014 7:10:26 PM
Sensor [3]: US-23 NB Surface Dry - - - - - - - 4/18/2014 7:10:26 PM
149-US-20 @ Lemoyne Rd. (582023) Status Air Temp Sfc Temp Sub Temp Dew Temp Wind Precip Traffic Updated
Sensor [A]: Atmospheric - 59.9 - - 43.2 9.9 / NE - - 4/18/2014 7:10:29 PM
150-I-280 @ Libbey Rd. (582024) Status Air Temp Sfc Temp Sub Temp Dew Temp Wind Precip Traffic Updated
Sensor [A]: Atmospheric - 59.0 - - 42.6 8.7 / NE - - 4/18/2014 7:10:31 PM
151-SR 2 @ Portage River Bridge (582025) Status Air Temp Sfc Temp Sub Temp Dew Temp Wind Precip Traffic Updated
Sensor [A]: Atmospheric - 57.0 - - 44.6 7.5 / NE - - 4/18/2014 7:10:33 PM
Sensor [0]: SR-2 EB Departure Dry - 67.8 56.7 - - - - 4/18/2014 7:10:33 PM
Sensor [1]: SR-2 WB Deck Dry - 67.3 - - - - - 4/18/2014 7:10:33 PM
152-SR-2@28.5 Bay Br. (582026) Status Air Temp Sfc Temp Sub Temp Dew Temp Wind Precip Traffic Updated
Sensor [A]: Atmospheric - 55.9 - - 54.0 5.6 / N - - 4/18/2014 7:10:35 PM
153-US-20 @ Sugar Creek (582027) Status Air Temp Sfc Temp Sub Temp Dew Temp Wind Precip Traffic Updated
Sensor [A]: Atmospheric - 60.6 - - 43.0 7.5 / N - - 4/18/2014 7:10:07 PM
Sensor [0]: US-20 EB Driving Dry - 72.5 74.3 - - - 17 / 55.9 4/18/2014 7:10:07 PM
Sensor [1]: US-20 WB Passing Trace Moisture - 73.4 - - - - 6 / 57.8 4/18/2014 7:10:07 PM
Sensor [2]: US-20 EB Driving BridgeDeck Dry - 70.7 - - - - 0 / 0.0 4/18/2014 7:10:07 PM
154-US-6 @ Sandusky River Br (582028) Status Air Temp Sfc Temp Sub Temp Dew Temp Wind Precip Traffic Updated
Sensor [A]: Atmospheric - 70.5 - - 50.5 7.5 / SE - - 4/14/2014 2:30:09 AM
Sensor [0]: US-6 EB Approach Dry - 66.4 - - - - - 4/14/2014 2:30:09 AM
Sensor [1]: US-6 WB Deck Dry - 69.8 - - - - - 4/14/2014 2:30:09 AM
155-US 6 @ Pickeral Creek (582029) Status Air Temp Sfc Temp Sub Temp Dew Temp Wind Precip Traffic Updated
Sensor [A]: Atmospheric - 57.6 - - 46.2 4.3 / NE - - 4/18/2014 7:10:30 PM
Sensor [0]: US-6 WB Departure Dry - 66.0 - - - - - 4/18/2014 7:10:30 PM
Sensor [1]: US-6 WB Deck Dry - 66.9 - - - - - 4/18/2014 7:10:30 PM
156-CR 296 & US 20 MP 31.0 (582030) Status Air Temp Sfc Temp Sub Temp Dew Temp Wind Precip Traffic Updated
Sensor [A]: Atmospheric - 59.5 - - 47.3 8.7 / NE - - 4/18/2014 7:10:31 PM
Sensor [0]: US-20 WB Dry - 70.9 59.2 - - - - 4/18/2014 7:10:31 PM
157-US 23 @ MP 5.5 Seneca (582031) Status Air Temp Sfc Temp Sub Temp Dew Temp Wind Precip Traffic Updated
Sensor [A]: Atmospheric - 65.5 - - 39.4 7.5 / S - - 4/18/2014 7:10:33 PM
Sensor [0]: US-23 NB Dry - 72.9 - - - - - 4/18/2014 7:10:33 PM
158-SR 12 @ Mp 7.0 Seneca (582032) Status Air Temp Sfc Temp Sub Temp Dew Temp Wind Precip Traffic Updated
Sensor [A]: Atmospheric - 64.4 - - 42.6 8.7 / N - - 4/18/2014 7:10:36 PM
Sensor [0]: SR-12 WB Dry - 76.1 - - - - - 4/18/2014 7:10:36 PM
159-US 224 @ SR 53 Seneca (582033) Status Air Temp Sfc Temp Sub Temp Dew Temp Wind Precip Traffic Updated
Sensor [A]: Atmospheric - 64.8 - - 41.2 1.2 / NW - - 4/18/2014 7:10:38 PM
Sensor [0]: SR-224 EB Bridge Deck Error - - - - - - - 4/18/2014 7:10:38 PM
Sensor [1]: US-224 EB Approach Error - 75.2 - - - - - 4/18/2014 7:10:38 PM
160-SR 4 @ MP 2.35 Seneca (582034) Status Air Temp Sfc Temp Sub Temp Dew Temp Wind Precip Traffic Updated
Sensor [A]: Atmospheric - 61.3 - - 38.5 9.3 / N - - 4/18/2014 7:10:39 PM
Sensor [0]: SR-4 SB Deck Dry - 69.8 - - - - 5 / 59.0 4/18/2014 7:10:39 PM
161-I-90 @ SR-252 (562000) Status Air Temp Sfc Temp Sub Temp Dew Temp Wind Precip Traffic Updated
Sensor [A]: Atmospheric - 48.9 - - 39.9 3.1 / NE - - 4/18/2014 7:10:03 PM
Sensor [0]: SR-252 NB RL over I-90 Dry - 67.1 - - - - - 4/18/2014 7:10:03 PM
Sensor [1]: I-90 WB N2 Lane Dry - 61.7 - - - - - 4/18/2014 7:10:03 PM
Sensor [2]: I-90 EB N1 Lane Dry - 65.3 - - - - - 4/18/2014 7:10:03 PM
162-I-90 @ Abbey Rd. (562001) Status Air Temp Sfc Temp Sub Temp Dew Temp Wind Precip Traffic Updated
Sensor [A]: Atmospheric - - - - - / Unknown - - -
Sensor [0]: I-90 EB N3 Lane Wet - 74.7 82.2 - - - - 8/21/2011 12:10:14 AM
Sensor [2]: I-90 WB N3 Lane Bridge Wet - 71.8 - - - - - 8/21/2011 12:10:14 AM
163-I-90 @ E. 140th (562002) Status Air Temp Sfc Temp Sub Temp Dew Temp Wind Precip Traffic Updated
Sensor [A]: Atmospheric - 49.3 - - 43.0 1.2 / N - - 4/18/2014 7:10:24 PM
Sensor [0]: I-90 WB N3 Lane Dry - 60.8 - - - - - 4/18/2014 7:10:24 PM
Sensor [1]: I-90 WB N3 Lane Bridge Dry - 64.4 - - - - - 4/18/2014 7:10:24 PM
Sensor [2]: I-90 EB N3 Lane Bridge Dry - 62.6 - - - - - 4/18/2014 7:10:24 PM
164-I-271 @ I-90 (562003) Status Air Temp Sfc Temp Sub Temp Dew Temp Wind Precip Traffic Updated
Sensor [A]: Atmospheric - 58.8 - - 51.8 5.6 / NW - - 4/18/2014 7:10:26 PM
Sensor [0]: I-271 NB TG I-90 EB Dry - 65.1 - - - - - 4/18/2014 7:10:26 PM
Sensor [2]: I-271 NB TG I-90 WB Bridge Dry - 67.1 - - - - - 4/18/2014 7:10:26 PM
Sensor [3]: I-271 NB TG I-90 WB Dry - 66.6 - - - - - 4/18/2014 7:10:26 PM
165-I-480 @ SR-10 (562004) Status Air Temp Sfc Temp Sub Temp Dew Temp Wind Precip Traffic Updated
Sensor [A]: Atmospheric - 59.2 - - 42.8 3.7 / N - - 4/18/2014 7:10:27 PM
Sensor [0]: I-480 EB N2 Lane Bridge Dry - 67.6 - - - - - 4/18/2014 7:10:27 PM
Sensor [1]: I-480 WB N2 Lane Bridge Dry - 66.7 - - - - - 4/18/2014 7:10:27 PM
166-I-71 @ Snow Rd. (562005) Status Air Temp Sfc Temp Sub Temp Dew Temp Wind Precip Traffic Updated
Sensor [A]: Atmospheric - 59.4 - - 44.4 3.7 / SE - - 4/18/2014 7:10:29 PM
Sensor [0]: I-71 NB N3 Lane Bridge Dry - 67.5 - - - - - 4/18/2014 7:10:29 PM
Sensor [1]: I-71 SB N3 Lane Bridge Dry - 67.1 - - - - - 4/18/2014 7:10:29 PM
Sensor [2]: I-71 SB N3 Lane Dry - 67.1 - - - - - 4/18/2014 7:10:29 PM
167-I-77 @ I-480 (562006) Status Air Temp Sfc Temp Sub Temp Dew Temp Wind Precip Traffic Updated
Sensor [A]: Atmospheric - 61.0 - - 43.0 4.3 / N - - 4/18/2014 7:10:31 PM
Sensor [0]: I-77 NB N2L Br @ SR-17 Error - - - - - - - 4/18/2014 7:10:31 PM
Sensor [1]: I-77 SB N2L Br @ SR-17 Error - - - - - - - 4/18/2014 7:10:31 PM
Sensor [2]: I-77 NB 2L N of I-480 Dry - 66.2 - - - - - 4/18/2014 7:10:31 PM
Sensor [3]: I-77 NB RL Br over I-480 Dry - 66.2 - - - - - 4/18/2014 7:10:31 PM
168-I-480 N @ Miles Rd. (562007) Status Air Temp Sfc Temp Sub Temp Dew Temp Wind Precip Traffic Updated
Sensor [A]: Atmospheric - 59.0 - - 40.8 1.9 / NE - - 4/18/2014 7:10:03 PM
Sensor [0]: I-480 N WB N2 Lane Dry - 68.0 - - - - - 4/18/2014 7:10:03 PM
Sensor [2]: I-480 EB N2 Lane Br Dry - 67.1 - - - - - 4/18/2014 7:10:03 PM
169-I-271 @ US-322 (562008) Status Air Temp Sfc Temp Sub Temp Dew Temp Wind Precip Traffic Updated
Sensor [A]: Atmospheric - 57.7 - - 42.4 4.3 / N - - 4/18/2014 7:10:05 PM
Sensor [0]: I-271 SB N2 Lane Br Dry - 66.2 - - - - - 4/18/2014 7:10:05 PM
Sensor [2]: I-271 NB N2 Lane Br Dry - 68.0 - - - - - 4/18/2014 7:10:05 PM
170-I-71 @ Drake Rd. (562009) Status Air Temp Sfc Temp Sub Temp Dew Temp Wind Precip Traffic Updated
Sensor [A]: Atmospheric - 60.3 - - 39.6 0.6 / N - - 4/18/2014 7:10:06 PM
Sensor [0]: I-71 NB N2 Lane Dry - 67.3 57.2 - - - - 4/18/2014 7:10:06 PM
Sensor [1]: I-71 NB N2 Lane Br Dry - 68.2 - - - - - 4/18/2014 7:10:06 PM
Sensor [2]: I-71 SB N2 Lane Br Dry - 66.9 - - - - - 4/18/2014 7:10:06 PM
171-I-77 @ SR-82 (562010) Status Air Temp Sfc Temp Sub Temp Dew Temp Wind Precip Traffic Updated
Sensor [A]: Atmospheric - 59.4 - - 41.0 4.3 / NW - - 4/18/2014 7:10:14 PM
Sensor [0]: I-77 NB N2 Lane Br Dry - 67.1 - - - - - 4/18/2014 7:10:14 PM
Sensor [1]: I-77 SB N2 Lane Br Dry - 66.2 - - - - - 4/18/2014 7:10:14 PM
Sensor [2]: I-77 SB N2 Lane Dry - 69.8 - - - - - 4/18/2014 7:10:14 PM
172-US-422 @ Chagrin Blvd. (562011) Status Air Temp Sfc Temp Sub Temp Dew Temp Wind Precip Traffic Updated
Sensor [A]: Atmospheric - 61.2 - - 39.6 3.1 / S - - 4/18/2014 7:10:16 PM
Sensor [0]: US-422 WB N2 Lane Dry - 70.0 52.9 - - - - 4/18/2014 7:10:16 PM
Sensor [1]: US-422 WB N2 Lane Br Dry - 68.9 - - - - - 4/18/2014 7:10:16 PM
Sensor [2]: US-422 EB N2 Lane Br Dry - 68.0 - - - - - 4/18/2014 7:10:16 PM
173-US-422 @ SR-44 (562012) Status Air Temp Sfc Temp Sub Temp Dew Temp Wind Precip Traffic Updated
Sensor [A]: Atmospheric - 59.5 - - 39.6 2.5 / NW - - 4/18/2014 7:10:18 PM
Sensor [0]: US-422 WB N2 Lane Br Dry - 70.7 - - - - - 4/18/2014 7:10:18 PM
Sensor [1]: US-422 WB N2 Lane Dry - 69.8 - - - - - 4/18/2014 7:10:18 PM
Sensor [2]: US-422 EB N2 Lane Br Dry - 69.8 - - - - - 4/18/2014 7:10:18 PM
174- SR-528 @SR-87 (562013) Status Air Temp Sfc Temp Sub Temp Dew Temp Wind Precip Traffic Updated
Sensor [A]: Atmospheric - 59.7 - - 47.5 6.2 / N - - 4/18/2014 7:10:02 PM
Sensor [0]: SR-528 NB S of SR-87 Wet - 71.6 - - - - - 4/18/2014 7:10:02 PM
Sensor [1]: SR-87 WB E of SR-528 Dry - 72.5 - - - - - 4/18/2014 7:10:02 PM
Sensor [2]: SR-528 SB N of SR-87 Dry - 73.4 - - - - - 4/18/2014 7:10:02 PM
175-SR-44 @ Mentor Rd. (562014) Status Air Temp Sfc Temp Sub Temp Dew Temp Wind Precip Traffic Updated
Sensor [A]: Atmospheric - 56.3 - - 39.2 5.6 / N - - 4/18/2014 7:10:04 PM
176-SR-528 @ SR-166 (562015) Status Air Temp Sfc Temp Sub Temp Dew Temp Wind Precip Traffic Updated
Sensor [A]: Atmospheric - 57.2 - - 38.7 9.3 / E - - 4/18/2014 7:10:05 PM
Sensor [0]: SR-528 SB N of SR-166 Dry - 68.9 - - - - - 4/18/2014 7:10:05 PM
Sensor [1]: SR-166 WB W of SR-528 Dry - 71.6 - - - - - 4/18/2014 7:10:05 PM
177-I-90 @ Hermitage Rd. (562016) Status Air Temp Sfc Temp Sub Temp Dew Temp Wind Precip Traffic Updated
Sensor [A]: Atmospheric - 53.6 - - 39.7 1.9 / N - - 4/18/2014 7:10:06 PM
Sensor [0]: I-90 WB N2 Lane Br Wet - 60.4 - - - - - 4/18/2014 7:10:06 PM
178-I-90 @ Paine Rd. (562017) Status Air Temp Sfc Temp Sub Temp Dew Temp Wind Precip Traffic Updated
Sensor [A]: Atmospheric - 63.9 - - 42.3 6.8 / E - - 5/3/2013 8:30:25 AM
Sensor [0]: I-90 WB N2 Lane Br Error - - - - - - - 5/3/2013 8:30:25 AM
179-US-20 @ Parmly Rd. (562018) Status Air Temp Sfc Temp Sub Temp Dew Temp Wind Precip Traffic Updated
Sensor [A]: Atmospheric - 47.7 - - 40.1 2.5 / E - - 4/18/2014 7:10:27 PM
Sensor [0]: US-20 WB N2 Lane Dry - 64.4 - - - - - 4/18/2014 7:10:27 PM
180-I270 @ US33 (38015) Status Air Temp Sfc Temp Sub Temp Dew Temp Wind Precip Traffic Updated
Sensor [A]: Atmospheric - 66.0 - - 45.0 1.2 / N - - 4/18/2014 7:10:05 PM
181-US32 @ Pike & Adams County Line (200180) Status Air Temp Sfc Temp Sub Temp Dew Temp Wind Precip Traffic Updated
Sensor [A]: Atmospheric - 64.6 - - 36.1 0.6 / NW - - 4/18/2014 7:11:36 PM
182-I71 @ SR665 Grove City Outpost (200181) Status Air Temp Sfc Temp Sub Temp Dew Temp Wind Precip Traffic Updated
Sensor [A]: Atmospheric - 66.2 - - 39.4 - - - 4/18/2014 7:11:58 PM
Sensor [1]: I71 NB Passing Lane Dry - 72.5 - - - - 78 / 60.9 4/18/2014 7:11:58 PM
183-US30 @ SR68 (200182) Status Air Temp Sfc Temp Sub Temp Dew Temp Wind Precip Traffic Updated
Sensor [A]: Atmospheric - 64.0 - - 40.3 6.8 / NW - - 4/18/2014 7:12:29 PM
Sensor [0]: US30 Eastbound Driving Approach Dry - 73.4 - - - - - 4/18/2014 7:12:29 PM
Sensor [1]: US30 Eastbound Passing Bridgedeck Dry - 72.5 - - - - - 4/18/2014 7:12:29 PM
Sensor [2]: US30 Westbound Passing Departure Dry - 72.5 - - - - - 4/18/2014 7:12:29 PM
184 - SR562(Norwood Lateral) @ Reading Road (80000) Status Air Temp Sfc Temp Sub Temp Dew Temp Wind Precip Traffic Updated
Sensor [A]: Atmospheric - 65.3 - - 58.6 5.0 / NE - - 5/7/2013 11:00:57 AM
185 - River Road @ Kibby Lane (80001) Status Air Temp Sfc Temp Sub Temp Dew Temp Wind Precip Traffic Updated
Sensor [A]: Atmospheric - 69.6 - - 38.1 1.9 / SE - - 4/18/2014 7:00:38 PM
186-SR49 @ SR81 (200185) Status Air Temp Sfc Temp Sub Temp Dew Temp Wind Precip Traffic Updated
Sensor [A]: Atmospheric - 65.3 - - 37.0 5.0 / NW - - 4/18/2014 7:12:34 PM
Sensor [0]: SR81 Eastbound Approach Dry - 78.8 - - - - - 4/18/2014 7:12:34 PM
Sensor [1]: SR81 Westbound Bridgedeck Dry - 81.5 - - - - - 4/18/2014 7:12:34 PM